createdAt,value
2022-11-15T00:00:35.638Z,28.70
2022-11-15T00:04:17.034Z,23.50
2022-11-15T00:07:58.213Z,25.80
2022-11-15T00:11:41.844Z,28.40
2022-11-15T00:15:22.627Z,25.60
2022-11-15T00:19:22.568Z,25.10
2022-11-15T00:23:22.371Z,23.70
2022-11-15T00:27:07.608Z,32.50
2022-11-15T00:30:49.144Z,24.60
2022-11-15T00:34:48.896Z,25.50
2022-11-15T00:38:48.166Z,22.80
2022-11-15T00:42:28.311Z,24.20
2022-11-15T00:46:10.748Z,22.40
2022-11-15T00:49:52.129Z,27.90
2022-11-15T00:53:34.084Z,25.90
2022-11-15T00:57:15.898Z,25.50
2022-11-15T01:00:57.166Z,23.40
2022-11-15T01:04:57.292Z,28.20
2022-11-15T01:08:37.604Z,26.40
2022-11-15T01:12:18.803Z,17.40
2022-11-15T01:16:06.534Z,18.50
2022-11-15T01:20:07.470Z,20.20
2022-11-15T01:23:48.666Z,17.90
2022-11-15T01:27:48.784Z,20.10
2022-11-15T01:31:29.477Z,20.50
2022-11-15T01:35:10.511Z,23.00
2022-11-15T01:39:10.359Z,25.30
2022-11-15T01:42:51.129Z,23.20
2022-11-15T01:46:35.881Z,22.90
2022-11-15T01:50:36.101Z,20.40
2022-11-15T01:54:36.199Z,20.20
2022-11-15T01:58:17.310Z,19.20
2022-11-15T02:01:59.645Z,15.70
2022-11-15T02:05:42.214Z,22.00
2022-11-15T02:09:23.056Z,24.60
2022-11-15T02:13:24.517Z,22.60
2022-11-15T02:17:22.429Z,15.70
2022-11-15T02:21:41.327Z,19.40
2022-11-15T02:25:41.797Z,19.70
2022-11-15T02:30:03.236Z,17.50
2022-11-15T02:34:06.498Z,16.30
2022-11-15T02:37:56.799Z,16.70
2022-11-15T02:41:54.672Z,15.50
2022-11-15T02:45:45.732Z,14.60
2022-11-15T02:49:30.466Z,21.00
2022-11-15T02:53:16.537Z,25.80
2022-11-15T02:57:03.273Z,24.80
2022-11-15T03:01:21.950Z,23.50
2022-11-15T03:05:50.615Z,25.60
2022-11-15T03:09:58.635Z,29.20
2022-11-15T03:13:59.427Z,28.00
2022-11-15T03:17:55.126Z,26.10
2022-11-15T03:21:39.174Z,23.50
2022-11-15T03:25:47.597Z,23.50
2022-11-15T03:29:34.164Z,18.00
2022-11-15T03:33:15.428Z,21.70
2022-11-15T03:36:57.028Z,16.80
2022-11-15T03:40:40.984Z,24.40
2022-11-15T03:44:47.858Z,82.70
2022-11-15T03:48:52.924Z,36.70
2022-11-15T03:52:35.241Z,31.40
2022-11-15T03:56:35.813Z,26.90
2022-11-15T04:00:16.905Z,29.40
2022-11-15T04:03:56.941Z,25.10
2022-11-15T04:07:39.267Z,30.40
2022-11-15T04:11:39.900Z,33.80
2022-11-15T04:15:24.206Z,25.40
2022-11-15T04:19:25.103Z,31.70
2022-11-15T04:23:35.071Z,31.30
2022-11-15T04:27:16.572Z,33.10
2022-11-15T04:30:58.364Z,26.50
2022-11-15T04:34:58.250Z,26.30
2022-11-15T04:38:38.829Z,24.60
2022-11-15T04:42:41.953Z,31.30
2022-11-15T04:46:22.971Z,32.90
2022-11-15T04:50:22.982Z,42.30
2022-11-15T04:54:22.523Z,42.00
2022-11-15T04:58:03.852Z,40.40
2022-11-15T05:01:45.464Z,39.90
2022-11-15T05:05:45.883Z,37.70
2022-11-15T05:09:45.431Z,36.20
2022-11-15T05:13:27.794Z,42.70
2022-11-15T05:17:09.109Z,46.70
2022-11-15T05:21:14.930Z,46.10
2022-11-15T05:24:55.316Z,52.90
2022-11-15T05:28:37.604Z,50.40
2022-11-15T05:32:19.096Z,50.20
2022-11-15T05:36:27.746Z,48.20
2022-11-15T05:40:09.309Z,60.30
2022-11-15T05:43:52.098Z,54.40
2022-11-15T05:47:53.080Z,53.40
2022-11-15T05:51:33.450Z,46.60
2022-11-15T05:55:34.195Z,51.30
2022-11-15T05:59:14.452Z,57.60
2022-11-15T06:03:14.591Z,59.50
2022-11-15T06:07:14.423Z,69.80
2022-11-15T06:10:56.321Z,52.50
2022-11-15T06:14:37.981Z,59.90
2022-11-15T06:18:39.381Z,56.70
2022-11-15T06:22:38.802Z,55.00
2022-11-15T06:26:19.212Z,52.00
2022-11-15T06:30:00.828Z,41.30
2022-11-15T06:33:42.436Z,54.60
2022-11-15T06:37:23.891Z,63.40
2022-11-15T06:41:24.273Z,66.30
2022-11-15T06:45:06.115Z,52.60
2022-11-15T06:48:47.149Z,58.70
2022-11-15T06:52:33.424Z,53.70
2022-11-15T06:56:14.748Z,50.30
2022-11-15T06:59:56.136Z,45.40
2022-11-15T07:03:38.920Z,47.50
2022-11-15T07:07:20.220Z,63.80
2022-11-15T07:11:04.214Z,65.60
2022-11-15T07:15:06.325Z,56.60
2022-11-15T07:19:05.868Z,52.50
2022-11-15T07:22:46.360Z,54.80
2022-11-15T07:26:27.818Z,48.00
2022-11-15T07:30:09.905Z,50.80
2022-11-15T07:33:50.953Z,52.30
2022-11-15T07:37:56.265Z,56.40
2022-11-15T07:41:36.655Z,57.90
2022-11-15T07:45:18.015Z,54.70
2022-11-15T07:49:18.135Z,50.70
2022-11-15T07:53:00.741Z,56.90
2022-11-15T07:56:42.489Z,51.90
2022-11-15T08:00:42.602Z,64.60
2022-11-15T08:04:23.153Z,58.40
2022-11-15T08:08:04.763Z,62.70
2022-11-15T08:12:05.125Z,89.40
2022-11-15T08:15:46.276Z,79.90
2022-11-15T08:19:46.779Z,66.30
2022-11-15T08:23:27.567Z,72.10
2022-11-15T08:27:18.396Z,70.30
2022-11-15T08:30:59.921Z,83.90
2022-11-15T08:35:00.021Z,67.90
2022-11-15T08:38:40.617Z,70.60
2022-11-15T08:42:21.583Z,68.10
2022-11-15T08:46:02.956Z,59.80
2022-11-15T08:50:03.440Z,60.10
2022-11-15T08:54:02.850Z,59.20
2022-11-15T08:57:43.174Z,50.20
2022-11-15T09:01:43.302Z,53.50
2022-11-15T09:05:23.813Z,42.10
2022-11-15T09:09:05.211Z,45.00
2022-11-15T09:12:49.426Z,42.50
2022-11-15T09:16:49.673Z,32.30
2022-11-15T09:20:30.180Z,28.80
2022-11-15T09:24:11.622Z,31.90
2022-11-15T09:27:53.021Z,34.40
2022-11-15T09:31:34.455Z,32.70
2022-11-15T09:35:34.511Z,28.30
2022-11-15T09:39:15.221Z,29.80
2022-11-15T09:43:37.432Z,32.20
2022-11-15T09:47:36.791Z,32.60
2022-11-15T09:51:47.868Z,29.30
2022-11-15T09:55:55.286Z,29.00
2022-11-15T09:59:56.591Z,26.40
2022-11-15T10:03:51.412Z,26.70
2022-11-15T10:07:22.314Z,32.00
2022-11-15T10:11:15.726Z,34.80
2022-11-15T10:15:14.692Z,26.50
2022-11-15T10:18:58.939Z,29.00
2022-11-15T10:22:29.902Z,26.90
2022-11-15T10:26:17.926Z,26.40
2022-11-15T10:29:47.401Z,55.70
2022-11-15T10:33:38.607Z,48.00
2022-11-15T10:37:31.956Z,36.00
2022-11-15T10:41:12.502Z,22.20
2022-11-15T10:44:53.020Z,22.40
2022-11-15T10:48:14.567Z,18.70
2022-11-15T10:52:20.210Z,22.50
2022-11-15T10:55:51.574Z,19.20
2022-11-15T10:59:39.579Z,23.60
2022-11-15T11:03:09.943Z,21.90
2022-11-15T11:07:00.583Z,18.90
2022-11-15T11:11:00.152Z,23.70
2022-11-15T11:14:32.485Z,23.60
2022-11-15T11:18:39.846Z,23.10
2022-11-15T11:22:17.081Z,17.90
2022-11-15T11:26:20.219Z,23.80
2022-11-15T11:30:13.544Z,22.50
2022-11-15T11:34:09.200Z,22.70
2022-11-15T11:37:35.031Z,21.60
2022-11-15T11:41:30.083Z,21.00
2022-11-15T11:45:24.146Z,23.40
2022-11-15T11:48:52.724Z,22.60
2022-11-15T11:52:28.063Z,26.00
2022-11-15T11:56:14.859Z,21.40
2022-11-15T12:00:20.945Z,22.50
2022-11-15T12:03:52.056Z,21.00
2022-11-15T12:07:40.843Z,21.10
2022-11-15T12:11:28.691Z,26.80
2022-11-15T12:14:56.502Z,29.30
2022-11-15T12:18:53.823Z,24.80
2022-11-15T12:22:44.564Z,29.70
2022-11-15T12:26:32.110Z,24.10
2022-11-15T12:29:57.794Z,23.80
2022-11-15T12:33:32.749Z,21.60
2022-11-15T12:37:38.193Z,22.10
2022-11-15T12:41:20.021Z,20.70
2022-11-15T12:44:41.114Z,20.30
2022-11-15T12:48:38.095Z,22.00
2022-11-15T12:51:59.417Z,15.40
2022-11-15T12:56:08.432Z,16.60
2022-11-15T12:59:48.459Z,15.30
2022-11-15T13:03:19.803Z,15.90
2022-11-15T13:06:49.573Z,13.30
2022-11-15T13:10:33.584Z,18.90
2022-11-15T13:14:37.846Z,17.40
2022-11-15T13:18:01.003Z,16.70
2022-11-15T13:22:09.341Z,17.00
2022-11-15T13:25:40.459Z,16.90
2022-11-15T13:29:21.273Z,19.20
2022-11-15T13:33:19.760Z,18.70
2022-11-15T13:37:01.365Z,19.00
2022-11-15T13:40:41.999Z,17.10
2022-11-15T13:44:05.152Z,19.00
2022-11-15T13:47:40.897Z,18.90
2022-11-15T13:51:28.440Z,21.90
2022-11-15T13:55:22.277Z,22.20
2022-11-15T13:58:43.781Z,21.10
2022-11-15T14:02:40.183Z,24.60
2022-11-15T14:06:11.481Z,22.60
2022-11-15T14:09:57.883Z,26.90
2022-11-15T14:13:30.629Z,22.60
2022-11-15T14:17:00.184Z,24.40
2022-11-15T14:20:37.098Z,26.10
2022-11-15T14:24:20.775Z,21.70
2022-11-15T14:28:17.183Z,23.60
2022-11-15T14:32:19.534Z,21.00
2022-11-15T14:35:40.782Z,22.20
2022-11-15T14:39:19.176Z,25.00
2022-11-15T14:42:56.562Z,28.20
2022-11-15T14:46:34.170Z,30.10
2022-11-15T14:50:32.183Z,38.90
2022-11-15T14:54:13.047Z,40.40
2022-11-15T14:57:34.790Z,35.60
2022-11-15T15:01:32.312Z,30.50
2022-11-15T15:05:18.748Z,24.40
2022-11-15T15:08:41.353Z,28.90
2022-11-15T15:12:23.499Z,27.60
2022-11-15T15:15:55.892Z,23.70
2022-11-15T15:19:33.329Z,25.90
2022-11-15T15:23:21.051Z,26.50
2022-11-15T15:27:07.563Z,25.60
2022-11-15T15:30:30.659Z,37.10
2022-11-15T15:34:08.034Z,48.60
2022-11-15T15:37:46.100Z,44.80
2022-11-15T15:41:22.249Z,47.30
2022-11-15T15:44:59.435Z,55.40
2022-11-15T15:48:55.900Z,64.70
2022-11-15T15:52:18.362Z,70.70
2022-11-15T15:56:13.806Z,71.90
2022-11-15T15:59:54.278Z,73.60
2022-11-15T16:03:34.392Z,70.20
2022-11-15T16:07:00.517Z,68.00
2022-11-15T16:10:35.563Z,46.80
2022-11-15T16:14:29.858Z,58.50
2022-11-15T16:17:55.955Z,58.20
2022-11-15T16:21:29.205Z,57.40
2022-11-15T16:25:06.680Z,68.20
2022-11-15T16:29:03.080Z,77.50
2022-11-15T16:32:25.217Z,77.80
2022-11-15T16:36:02.627Z,72.10
2022-11-15T16:39:39.472Z,79.50
2022-11-15T16:43:36.179Z,79.90
2022-11-15T16:46:57.346Z,83.00
2022-11-15T16:50:41.709Z,84.40
2022-11-15T16:54:13.390Z,96.00
2022-11-15T16:57:50.819Z,81.90
2022-11-15T17:01:33.840Z,106.30
2022-11-15T17:05:10.366Z,104.40
2022-11-15T17:08:43.419Z,96.90
2022-11-15T17:12:39.995Z,108.40
2022-11-15T17:16:11.081Z,116.10
2022-11-15T17:19:38.801Z,102.90
2022-11-15T17:23:17.528Z,107.60
2022-11-15T17:27:13.056Z,102.80
2022-11-15T17:30:53.719Z,105.40
2022-11-15T17:34:15.329Z,95.00
2022-11-15T17:37:53.448Z,85.50
2022-11-15T17:41:50.156Z,85.10
2022-11-15T17:45:30.289Z,85.50
2022-11-15T17:49:10.859Z,83.00
2022-11-15T17:52:32.192Z,80.40
2022-11-15T17:56:32.559Z,81.30
2022-11-15T17:59:54.089Z,82.60
2022-11-15T18:03:34.997Z,74.60
2022-11-15T18:07:28.433Z,112.00
2022-11-15T18:10:49.888Z,106.50
2022-11-15T18:14:27.553Z,86.90
2022-11-15T18:18:23.957Z,72.70
2022-11-15T18:22:06.577Z,74.00
2022-11-15T18:25:27.884Z,75.50
2022-11-15T18:29:05.534Z,82.40
2022-11-15T18:32:43.195Z,72.10
2022-11-15T18:36:24.036Z,77.70
2022-11-15T18:39:58.625Z,75.70
2022-11-15T18:43:37.678Z,82.00
2022-11-15T18:47:14.884Z,86.60
2022-11-15T18:50:54.098Z,86.80
2022-11-15T18:54:31.394Z,83.50
2022-11-15T18:58:29.670Z,82.70
2022-11-15T19:01:52.265Z,86.00
2022-11-15T19:05:28.946Z,78.90
2022-11-15T19:09:31.956Z,88.20
2022-11-15T19:12:54.725Z,81.90
2022-11-15T19:16:33.475Z,75.00
2022-11-15T19:20:27.856Z,69.40
2022-11-15T19:24:09.915Z,66.50
2022-11-15T19:27:34.216Z,80.20
2022-11-15T19:31:29.568Z,113.50
2022-11-15T19:35:10.025Z,109.00
2022-11-15T19:38:50.514Z,96.00
2022-11-15T19:42:12.068Z,108.20
2022-11-15T19:46:01.973Z,103.90
2022-11-15T19:49:28.290Z,106.60
2022-11-15T19:53:24.885Z,94.20
2022-11-15T19:57:07.160Z,93.30
2022-11-15T20:00:28.985Z,99.80
2022-11-15T20:04:07.971Z,124.20
2022-11-15T20:08:02.946Z,122.20
2022-11-15T20:11:24.879Z,96.40
2022-11-15T20:15:01.835Z,102.20
2022-11-15T20:18:41.512Z,103.60
2022-11-15T20:22:19.521Z,118.60
2022-11-15T20:26:15.291Z,126.20
2022-11-15T20:29:37.055Z,138.10
2022-11-15T20:33:15.007Z,133.90
2022-11-15T20:37:10.942Z,142.00
2022-11-15T20:40:32.928Z,160.00
2022-11-15T20:44:29.037Z,163.20
2022-11-15T20:47:50.490Z,154.50
2022-11-15T20:51:28.025Z,174.00
2022-11-15T20:55:06.095Z,160.80
2022-11-15T20:58:45.742Z,162.70
2022-11-15T21:02:39.967Z,159.60
2022-11-15T21:06:01.320Z,167.40
2022-11-15T21:09:57.703Z,194.60
2022-11-15T21:13:21.490Z,149.50
2022-11-15T21:16:57.654Z,134.50
2022-11-15T21:20:35.120Z,130.20
2022-11-15T21:24:31.856Z,137.90
2022-11-15T21:27:53.473Z,129.20
2022-11-15T21:31:51.214Z,122.90
2022-11-15T21:35:15.749Z,116.00
2022-11-15T21:38:50.241Z,129.50
2022-11-15T21:42:27.960Z,128.80
2022-11-15T21:46:06.992Z,181.20
2022-11-15T21:49:43.318Z,182.40
2022-11-15T21:53:21.377Z,153.70
2022-11-15T21:56:58.709Z,136.50
2022-11-15T22:00:55.219Z,133.80
2022-11-15T22:04:17.248Z,113.70
2022-11-15T22:07:55.022Z,107.50
2022-11-15T22:11:51.651Z,112.00
2022-11-15T22:15:13.113Z,102.90
2022-11-15T22:19:09.777Z,111.10
2022-11-15T22:22:31.653Z,108.10
2022-11-15T22:26:18.362Z,122.40
2022-11-15T22:29:46.892Z,127.90
2022-11-15T22:33:27.728Z,125.60
2022-11-15T22:41:03.349Z,111.40
2022-11-15T22:44:25.217Z,113.70
2022-11-15T22:48:03.300Z,107.40
2022-11-15T22:51:40.773Z,105.10
2022-11-15T22:55:39.623Z,120.20
2022-11-15T22:59:01.541Z,117.60
2022-11-15T23:02:39.264Z,110.90
2022-11-15T23:06:35.703Z,105.60
2022-11-15T23:10:35.317Z,100.70
2022-11-15T23:14:15.792Z,110.50
2022-11-15T23:17:38.313Z,93.80
2022-11-15T23:21:55.558Z,102.00
2022-11-15T23:25:17.093Z,131.60
2022-11-15T23:28:54.627Z,128.80
2022-11-15T23:32:51.221Z,114.10
2022-11-15T23:36:13.664Z,119.00
2022-11-15T23:39:51.443Z,125.90
2022-11-15T23:43:28.908Z,112.60
2022-11-15T23:47:07.054Z,114.00
2022-11-15T23:50:48.368Z,102.30
2022-11-15T23:54:22.058Z,110.40
2022-11-15T23:57:59.799Z,104.90
